Current Weather

Hillsboro Muni

Hillsboro, Texas (KINJ)

Report from: Sunday, February 25, 2024 9:55 PM UTC
Current time: Sunday, February 25, 2024 10:14 PM UTC

Nearby weather – Weather history – Daily summaries
Weather forecast

Temperature28.1°C (82.6°F)
Heat index27.7°C (81.9°F)
Dew point11.4°C (52.5°F)
Winds 16 kts (8.2 m/s, 18.4 mph) South-Southwest (210°)
Wind gusts 21 kts (10.8 m/s, 24.2 mph)
Visibility10 mi. (16.1 km)
Clouds Sky clear
Altimeter29.86 in.Hg (1011 mB)
Relative humidity36 %
Density altitude1,768 ft. (539 m)
Remarks Fully automated report
Automated weather observing station with precipitation discriminator
Flight conditions Visual Meteorological Conditions
Raw dataKINJ 252155Z AUTO 21016G21KT 10SM CLR 28/11 A2986 RMK AO2 T02810114
An error has occurred. This application may no longer respond until reloaded. Reload 🗙